Time;durP1;ratioP1;P1;durP2;ratioP2;P2;SDS_P1;SDS_P2;PMS_P1;PMS_P2;Temp;Humidity;BMP_temperature;BMP_pressure;BME280_temperature;BME280_humidity;BME280_pressure;Samples;Min_cycle;Max_cycle;Signal;HPM_P1;HPM_P2
2021/01/13 00:00:31;;;;;;;;;;;1.60;99.90;;;;;;21057816;28;20043;-77
2021/01/13 00:10:32;;;;;;;22.25;11.10;;;1.70;99.90;;;;;;21093138;28;20397;-81
2021/01/13 00:20:33;;;;;;;;;;;1.70;99.90;;;;;;21023271;28;20093;-81
2021/01/13 00:30:34;;;;;;;15.87;8.57;;;1.60;99.90;;;;;;21029167;28;19954;-80
2021/01/13 00:40:35;;;;;;;18.63;8.75;;;1.50;99.90;;;;;;21052245;28;20304;-81
2021/01/13 00:50:35;;;;;;;;;;;1.70;99.90;;;;;;21066485;28;20036;-81
2021/01/13 01:00:36;;;;;;;13.80;7.28;;;1.70;99.90;;;;;;21084269;28;20339;-80
2021/01/13 01:10:39;;;;;;;10.77;6.20;;;1.60;99.90;;;;;;21092116;22;20062;-79
2021/01/13 01:20:40;;;;;;;13.85;7.07;;;1.60;99.90;;;;;;21080081;28;20047;-79
2021/01/13 01:30:40;;;;;;;12.55;7.13;;;1.60;99.90;;;;;;21086051;28;20078;-80
2021/01/13 01:40:41;;;;;;;33.95;9.80;;;1.50;99.90;;;;;;21083826;28;20059;-80
2021/01/13 01:50:43;;;;;;;;;;;1.40;99.90;;;;;;21100188;28;20119;-80
2021/01/13 02:00:44;;;;;;;8.37;5.40;;;1.40;99.90;;;;;;21080547;28;19919;-80
2021/01/13 02:10:46;;;;;;;;;;;1.30;99.90;;;;;;21079363;28;20031;-80
2021/01/13 02:20:53;;;;;;;10.15;5.75;;;1.30;99.90;;;;;;21079101;28;19912;-80
2021/01/13 02:31:03;;;;;;;10.38;5.72;;;1.20;99.90;;;;;;21097101;28;20035;-80
2021/01/13 02:41:14;;;;;;;8.88;5.25;;;1.20;99.90;;;;;;21062212;28;20024;-80
2021/01/13 02:51:27;;;;;;;10.17;5.10;;;1.20;99.90;;;;;;21079991;28;20028;-80
2021/01/13 03:01:29;;;;;;;11.63;6.70;;;1.30;99.90;;;;;;21078559;28;20182;-80
2021/01/13 03:11:31;;;;;;;10.80;5.93;;;1.40;99.90;;;;;;21062882;28;20040;-80
2021/01/13 03:21:55;;;;;;;17.10;6.88;;;1.40;99.90;;;;;;21079649;28;20029;-80
2021/01/13 03:32:08;;;;;;;8.27;5.55;;;1.50;99.90;;;;;;21077749;28;20032;-80
2021/01/13 03:42:11;;;;;;;13.30;6.28;;;1.50;99.90;;;;;;21092471;28;20494;-79
2021/01/13 03:52:13;;;;;;;14.82;8.18;;;1.40;99.90;;;;;;21072537;28;20035;-79
2021/01/13 04:02:22;;;;;;;14.77;7.15;;;1.40;99.90;;;;;;21090455;28;20035;-79
2021/01/13 04:12:32;;;;;;;9.80;5.60;;;1.30;99.90;;;;;;21069676;28;20036;-79
2021/01/13 04:22:33;;;;;;;9.60;5.65;;;1.30;99.90;;;;;;21088572;28;20090;-80
2021/01/13 04:32:34;;;;;;;8.90;5.53;;;1.30;99.90;;;;;;21039574;28;20063;-80
2021/01/13 04:43:12;;;;;;;16.02;7.07;;;1.40;99.90;;;;;;21070664;28;20024;-80
2021/01/13 04:53:20;;;;;;;12.85;7.60;;;1.40;99.90;;;;;;21064027;28;20032;-79
2021/01/13 05:03:23;;;;;;;11.00;7.07;;;1.40;99.90;;;;;;21087142;28;20032;-80
2021/01/13 05:13:24;;;;;;;20.00;9.10;;;1.50;99.90;;;;;;21083180;28;20436;-79
2021/01/13 05:23:30;;;;;;;25.50;10.35;;;1.50;99.90;;;;;;21080299;28;20035;-78
2021/01/13 05:33:31;;;;;;;15.38;8.07;;;1.40;99.90;;;;;;21097890;28;20706;-78
2021/01/13 05:43:33;;;;;;;18.70;7.55;;;1.50;99.90;;;;;;21078799;28;20031;-78
2021/01/13 05:53:34;;;;;;;13.20;6.95;;;1.60;99.90;;;;;;21096796;28;20036;-79
2021/01/13 06:03:35;;;;;;;;;;;1.60;99.90;;;;;;21076553;28;20028;-79
2021/01/13 06:13:37;;;;;;;9.10;5.43;;;1.60;99.90;;;;;;21092819;28;19923;-79
2021/01/13 06:23:51;;;;;;;11.13;6.35;;;1.80;99.90;;;;;;21057394;28;20464;-81
2021/01/13 06:34:30;;;;;;;10.57;5.35;;;1.70;99.90;;;;;;21082598;28;20054;-77
2021/01/13 06:44:48;;;;;;;14.65;6.75;;;1.70;99.90;;;;;;21067136;28;20036;-80
2021/01/13 06:54:51;;;;;;;14.80;7.40;;;1.50;99.90;;;;;;21082868;28;20028;-78
2021/01/13 07:04:52;;;;;;;10.07;5.90;;;1.50;99.90;;;;;;21098939;22;20036;-83
2021/01/13 07:14:57;;;;;;;;;;;1.40;99.90;;;;;;21178627;28;20054;-82
2021/01/13 07:24:57;;;;;;;12.52;6.38;;;1.30;99.90;;;;;;21162137;28;19908;-80
2021/01/13 07:35:04;;;;;;;;;;;1.20;99.90;;;;;;21160053;28;20041;-83
2021/01/13 07:45:29;;;;;;;14.60;7.35;;;1.30;99.90;;;;;;21160713;28;19908;-82
2021/01/13 07:55:31;;;;;;;15.50;6.97;;;1.40;99.90;;;;;;21193428;28;20469;-83
2021/01/13 08:06:10;;;;;;;18.67;7.47;;;1.50;99.90;;;;;;21156914;28;20040;-80
2021/01/13 08:16:46;;;;;;;19.77;8.48;;;1.50;99.90;;;;;;21169812;28;20107;-80
2021/01/13 08:26:47;;;;;;;16.13;8.10;;;1.70;99.90;;;;;;21183044;28;20529;-80
2021/01/13 08:36:53;;;;;;;15.43;8.40;;;1.80;99.90;;;;;;21163685;28;20055;-79
2021/01/13 08:47:03;;;;;;;17.17;7.60;;;1.80;99.90;;;;;;21173303;28;20043;-81
2021/01/13 08:57:07;;;;;;;15.35;6.70;;;1.90;99.90;;;;;;21179825;28;20028;-82
2021/01/13 09:07:12;;;;;;;12.60;5.55;;;1.90;99.90;;;;;;21173921;28;20031;-81
2021/01/13 09:17:14;;;;;;;12.27;6.40;;;2.00;99.90;;;;;;21171920;28;20042;-79
2021/01/13 09:27:16;;;;;;;15.82;8.43;;;2.20;99.90;;;;;;21157026;28;20032;-83
2021/01/13 09:37:22;;;;;;;20.10;8.95;;;2.20;99.90;;;;;;20990137;28;20064;-80
2021/01/13 09:47:27;;;;;;;18.25;8.82;;;2.20;99.90;;;;;;21002228;28;20446;-81
2021/01/13 09:57:32;;;;;;;17.50;8.55;;;2.10;99.90;;;;;;21007584;28;20441;-80
2021/01/13 10:07:34;;;;;;;19.85;8.60;;;2.10;99.90;;;;;;21003734;28;20044;-82
2021/01/13 10:17:36;;;;;;;18.38;8.95;;;2.00;99.90;;;;;;21017595;28;20068;-81
2021/01/13 10:27:42;;;;;;;19.77;8.63;;;2.20;99.90;;;;;;21146010;28;20047;-81
2021/01/13 10:37:54;;;;;;;20.50;8.43;;;2.20;99.90;;;;;;21192876;28;20028;-82
2021/01/13 10:48:01;;;;;;;14.75;8.65;;;2.30;99.90;;;;;;21158263;28;20106;-81
2021/01/13 10:58:02;;;;;;;21.02;8.57;;;2.30;99.90;;;;;;21161923;28;20118;-79
2021/01/13 11:08:03;;;;;;;;;;;2.50;99.90;;;;;;21159013;28;20028;-80
2021/01/13 11:18:08;;;;;;;14.50;8.07;;;2.60;99.90;;;;;;21193308;28;19911;-79
2021/01/13 11:28:11;;;;;;;14.27;7.88;;;2.80;99.90;;;;;;21159834;28;20473;-81
2021/01/13 11:38:12;;;;;;;19.48;8.55;;;3.00;99.90;;;;;;21156079;28;20078;-83
2021/01/13 11:48:20;;;;;;;19.33;8.90;;;3.20;99.90;;;;;;21170291;28;20040;-82
2021/01/13 11:58:21;;;;;;;17.05;8.07;;;3.40;99.90;;;;;;21150230;28;20033;-82
2021/01/13 12:08:29;;;;;;;15.82;8.13;;;3.70;99.90;;;;;;21164073;28;20528;-82
2021/01/13 12:18:42;;;;;;;17.17;7.07;;;4.30;99.90;;;;;;21170704;28;20031;-81
2021/01/13 12:28:44;;;;;;;14.20;7.68;;;4.80;99.90;;;;;;21153441;28;20038;-83
2021/01/13 12:38:46;;;;;;;16.05;6.70;;;4.60;99.90;;;;;;21165525;28;20039;-80
2021/01/13 12:48:47;;;;;;;15.52;7.55;;;5.80;99.90;;;;;;21151103;28;20038;-81
2021/01/13 12:58:48;;;;;;;10.00;5.13;;;5.60;99.90;;;;;;21247758;28;20358;-83
2021/01/13 13:08:50;;;;;;;15.17;7.47;;;7.30;99.90;;;;;;21275297;22;20043;-78
2021/01/13 13:18:55;;;;;;;15.38;7.65;;;6.90;99.90;;;;;;21248416;27;20031;-78
2021/01/13 13:28:56;;;;;;;20.30;9.10;;;4.90;99.90;;;;;;21271944;27;20167;-77
2021/01/13 13:38:57;;;;;;;17.90;8.33;;;4.40;99.90;;;;;;21264277;27;20057;-78
2021/01/13 13:48:57;;;;;;;13.57;7.03;;;4.20;99.90;;;;;;21274570;27;20027;-77
2021/01/13 13:58:58;;;;;;;18.13;7.47;;;4.20;99.90;;;;;;21285164;27;20031;-77
2021/01/13 14:08:59;;;;;;;17.27;7.77;;;4.20;99.90;;;;;;21265914;27;20023;-78
2021/01/13 14:19:00;;;;;;;17.00;7.43;;;3.90;99.90;;;;;;21317354;27;20027;-78
2021/01/13 14:29:01;;;;;;;;;;;3.60;99.90;;;;;;21235557;27;20034;-80
2021/01/13 14:39:03;;;;;;;15.45;7.25;;;3.50;99.90;;;;;;21238759;27;19919;-78
2021/01/13 14:49:04;;;;;;;;;;;3.60;99.90;;;;;;21253574;27;20313;-80
2021/01/13 14:59:05;;;;;;;17.67;7.80;;;3.60;99.90;;;;;;21248165;27;19915;-78
2021/01/13 15:09:08;;;;;;;14.98;7.43;;;3.50;99.90;;;;;;21228020;27;20353;-79
2021/01/13 15:19:09;;;;;;;14.68;7.13;;;3.50;99.90;;;;;;21262297;27;20132;-80
2021/01/13 15:29:10;;;;;;;22.20;8.65;;;3.50;99.90;;;;;;21222324;27;20027;-79
2021/01/13 15:39:11;;;;;;;16.02;7.93;;;3.50;99.90;;;;;;21219764;27;20042;-79
2021/01/13 15:49:12;;;;;;;18.15;8.25;;;3.40;99.90;;;;;;21251158;27;20754;-79
2021/01/13 15:59:20;;;;;;;15.45;8.55;;;3.30;99.90;;;;;;21211722;27;20714;-79
2021/01/13 16:09:21;;;;;;;16.27;7.93;;;3.30;99.90;;;;;;21148809;28;20043;-79
2021/01/13 16:19:23;;;;;;;;;;;3.20;99.90;;;;;;21130466;28;20032;-79
2021/01/13 16:29:24;;;;;;;14.95;7.65;;;3.20;99.90;;;;;;21181021;27;20343;-78
2021/01/13 16:39:25;;;;;;;26.13;12.63;;;3.10;99.90;;;;;;21211138;27;20039;-78
2021/01/13 16:49:26;;;;;;;17.30;9.05;;;3.10;99.90;;;;;;21232913;27;20054;-78
2021/01/13 16:59:32;;;;;;;21.92;9.82;;;2.80;99.90;;;;;;21240866;27;20840;-78
2021/01/13 17:09:33;;;;;;;18.73;9.85;;;2.80;99.90;;;;;;21240715;27;20126;-78
2021/01/13 17:19:35;;;;;;;30.92;16.17;;;2.80;99.90;;;;;;21237576;27;20019;-77
2021/01/13 17:29:36;;;;;;;25.55;13.48;;;2.80;99.90;;;;;;21213511;27;20405;-77
2021/01/13 17:39:37;;;;;;;;;;;2.80;99.90;;;;;;21184726;27;20095;-77
2021/01/13 17:49:41;;;;;;;14.57;7.60;;;2.80;99.90;;;;;;21177842;27;19911;-77
2021/01/13 17:59:44;;;;;;;9.60;6.03;;;2.80;99.90;;;;;;21159326;27;20032;-78
2021/01/13 18:09:45;;;;;;;8.70;4.93;;;2.80;99.90;;;;;;21182654;27;20062;-78
2021/01/13 18:19:47;;;;;;;8.68;5.63;;;2.70;99.90;;;;;;21236010;27;20130;-78
2021/01/13 18:29:53;;;;;;;3.35;2.13;;;2.60;99.90;;;;;;21271290;27;20035;-79
2021/01/13 18:39:54;;;;;;;4.40;2.65;;;2.60;99.90;;;;;;21284705;27;20035;-79
2021/01/13 18:49:58;;;;;;;5.95;2.40;;;2.50;99.90;;;;;;21301969;27;20034;-79
2021/01/13 18:59:59;;;;;;;6.65;3.67;;;2.20;99.90;;;;;;21272031;27;20058;-78
2021/01/13 19:09:59;;;;;;;;;;;1.90;99.90;;;;;;21152971;22;20067;-80
2021/01/13 19:20:01;;;;;;;9.45;5.13;;;1.60;99.90;;;;;;21004750;28;19924;-79
2021/01/13 19:30:03;;;;;;;;;;;1.50;99.90;;;;;;21058879;28;20046;-80
2021/01/13 19:40:04;;;;;;;9.43;5.33;;;1.60;99.90;;;;;;20993450;28;19924;-80
2021/01/13 19:50:06;;;;;;;11.90;6.38;;;1.80;99.90;;;;;;20970817;28;20743;-82
2021/01/13 20:00:07;;;;;;;13.23;7.97;;;1.90;99.90;;;;;;20931873;28;20728;-79
2021/01/13 20:10:15;;;;;;;18.77;7.57;;;1.90;99.90;;;;;;20892798;28;20090;-80
2021/01/13 20:20:16;;;;;;;10.80;6.80;;;1.90;99.90;;;;;;20895889;28;20043;-82
2021/01/13 20:30:19;;;;;;;14.23;7.97;;;1.90;99.90;;;;;;20900001;28;20782;-80
2021/01/13 20:40:27;;;;;;;11.02;6.25;;;1.70;99.90;;;;;;20876094;28;20036;-82
2021/01/13 20:50:28;;;;;;;10.98;6.65;;;1.70;99.90;;;;;;20910732;28;20041;-80
2021/01/13 21:00:31;;;;;;;13.15;6.90;;;1.70;99.90;;;;;;20931819;28;20037;-81
2021/01/13 21:10:32;;;;;;;10.75;5.78;;;1.60;99.90;;;;;;20902304;28;20048;-81
2021/01/13 21:20:33;;;;;;;;;;;1.60;99.90;;;;;;20937057;28;20463;-82
2021/01/13 21:30:34;;;;;;;14.07;7.83;;;1.60;99.90;;;;;;20971682;28;20367;-82
2021/01/13 21:40:34;;;;;;;9.35;5.93;;;1.80;99.90;;;;;;20969608;28;20288;-83
2021/01/13 21:50:35;;;;;;;;;;;1.70;99.90;;;;;;20961785;28;20427;-82
2021/01/13 22:00:37;;;;;;;15.45;7.97;;;1.70;99.90;;;;;;20965452;28;19975;-82
2021/01/13 22:10:38;;;;;;;18.45;10.30;;;1.90;99.90;;;;;;20937454;28;20044;-81
2021/01/13 22:20:39;;;;;;;18.15;10.15;;;1.90;99.90;;;;;;20938780;28;20578;-82
2021/01/13 22:30:40;;;;;;;19.83;9.30;;;2.00;99.90;;;;;;20901156;28;20029;-83
2021/01/13 22:40:40;;;;;;;18.40;9.80;;;2.10;99.90;;;;;;20898465;28;20029;-82
2021/01/13 22:50:41;;;;;;;17.25;9.27;;;2.50;99.90;;;;;;20893136;28;20294;-83
2021/01/13 23:00:42;;;;;;;12.65;6.82;;;2.70;99.90;;;;;;20933519;28;20025;-81
2021/01/13 23:10:43;;;;;;;5.03;2.10;;;3.50;99.90;;;;;;20929589;28;20056;-82
2021/01/13 23:20:44;;;;;;;1.37;1.00;;;4.70;99.90;;;;;;20934092;28;20029;-81
2021/01/13 23:30:47;;;;;;;1.13;0.63;;;5.30;99.90;;;;;;20915644;28;20512;-80
2021/01/13 23:40:48;;;;;;;0.60;0.60;;;5.30;99.90;;;;;;20916529;28;20112;-80
2021/01/13 23:50:52;;;;;;;1.57;0.57;;;5.50;99.90;;;;;;20896269;28;20033;-80
